Alcove, NY

2:04 AM EST on January 31, 2015 (GMT -0500)
Callanan's Corners | Change Station
CLOSE
Current Station
Personal Weather Station
Location: Ravena, NY
Elevation: 387 ft
Nearby Weather Stations
Active Advisory: Wind Chill Advisory Active Notice: Public Information Statement

Elev 387 ft 42.53 °N, 73.89 °W | Updated 25 minutes ago

Partly Cloudy
Partly Cloudy
4.8 °F
Feels Like -12 °F
N
13.0
Wind Variable Wind from NW
Gusts 26.0 mph

Today
High -- | Low -- °F
--% Chance of Precip.
Yesterday
High -- | Low -- °F
Precip. -- in
7:10 AM 5:07 PM
Waxing Gibbous, 88% visible
Pressure 30.12 in
Visibility 10.0 miles
Clouds Few 3200 ft
Windchill -12 °F
Dew Point -4 °F
Humidity 67%
Rainfall 0.06 in
Snow Depth Not available.
UV 0 out of 12
Pollen .10 out of 12
Air Quality Not available.
Flu Activity Not available.
METAR KALB 310651Z 29013KT 10SM FEW032 M15/M22 A3010 RMK AO2 SLP198 T11501217

More Conditions Fewer Conditions

Pressure 30.12 in
Visibility 10.0 miles
Clouds Few 3200 ft
Windchill -12 °F
Dew Point -4 °F
Humidity 67%
Rainfall 0.06 in
Snow Depth Not available.
UV 0 out of 12
Pollen .10 out of 12
Air Quality Not available.
Flu Activity Not available.
METAR KALB 310651Z 29013KT 10SM FEW032 M15/M22 A3010 RMK AO2 SLP198 T11501217

More Conditions Fewer Conditions

10-Day Weather Forecast

Almanac

Astronomy

Jan. 31, 2015 Rise Set
Actual Time
Civil Twilight
Nautical Twilight
Astronomical Twilight
Moon
Length of Visible Light
Length of Day
Tomorrow will be .
, % of the Moon is Illuminated

Today's Extremes

State Highs State Lows

Community

WunderPhotos

Upload Photos

1,792,014 photos uploaded!

WunderBlogs® & News

Nearby

Air Quality

  Air Quality AQ Index Pollutant
Not available.

Snow Depth

Station Depth Elevation

Earthquake Activity

City Distance Mag. Time & Date
Minimum magnitude displayed is 2.5.

Coastal Water Temperatures

Place Temperature

Nearby Weather Stations